Chatterton, Georgia
Current Conditions -  °F | °C
As of 3:53 PM on Thursday 20 Nov 2014 (Local Time) from KAMG Reporting Station
Clear Clear  
Wind Chill: 63°   Ceiling: Unl
Heat Index: 63°   Visibility: 10mi
Dew Point: 31°   Wind: 6mph
Humidity: 30%   Direction: 240°WSW
Pressure: 30.2"   Gusts: NA
Location:  31.4253°N, 82.5972°W
Report Text: KAMG 202053Z AUTO 24005KT 10SM CLR 17/M01 A3020 RMK AO2 SLP226 T01721006 56018
Loading
Personal Weather Stations






























Interactive Weather Map New forecast layout! Learn more

10-Day Weather Forecast

Advertisements
Track Severe Weather on mobile